Time;durP1;ratioP1;P1;durP2;ratioP2;P2;SDS_P1;SDS_P2;PMS_P1;PMS_P2;Temp;Humidity;BMP_temperature;BMP_pressure;BME280_temperature;BME280_humidity;BME280_pressure;Samples;Min_cycle;Max_cycle;Signal;HPM_P1;HPM_P2
2023/10/06 00:00:42;;;;;;;2.15;1.90;;;;;;;;;;5051757;28;20033;-55
2023/10/06 00:03:11;;;;;;;4.05;2.28;;;;;;;;;;5051084;28;20041;-55
2023/10/06 00:05:38;;;;;;;2.28;2.08;;;;;;;;;;5050044;28;21774;-55
2023/10/06 00:08:06;;;;;;;3.67;2.15;;;;;;;;;;5051030;28;20048;-55
2023/10/06 00:10:32;;;;;;;2.33;1.98;;;;;;;;;;5054719;28;20946;-55
2023/10/06 00:12:59;;;;;;;5.32;2.53;;;;;;;;;;5049794;28;20049;-55
2023/10/06 00:15:43;;;;;;;3.70;3.05;;;;;;;;;;5053644;28;20029;-55
2023/10/06 00:18:16;;;;;;;6.68;2.80;;;;;;;;;;5050370;28;20036;-55
2023/10/06 00:20:49;;;;;;;2.85;2.50;;;;;;;;;;5064575;28;20059;-55
2023/10/06 00:23:21;;;;;;;4.95;2.60;;;;;;;;;;5049380;28;20574;-55
2023/10/06 00:25:52;;;;;;;4.65;2.50;;;;;;;;;;5053687;28;20071;-56
2023/10/06 00:28:25;;;;;;;3.47;2.08;;;;;;;;;;5056343;28;20049;-56
2023/10/06 00:31:06;;;;;;;3.13;2.50;;;;;;;;;;5059524;28;20076;-56
2023/10/06 00:33:32;;;;;;;3.67;2.58;;;;;;;;;;5048276;28;20402;-55
2023/10/06 00:35:59;;;;;;;3.63;1.98;;;;;;;;;;5054058;28;20043;-55
2023/10/06 00:38:27;;;;;;;2.42;1.65;;;;;;;;;;5056402;28;20048;-55
2023/10/06 00:40:53;;;;;;;5.15;2.20;;;;;;;;;;5051336;28;20040;-55
2023/10/06 00:43:34;;;;;;;2.00;1.73;;;;;;;;;;5056573;28;20044;-55
2023/10/06 00:46:00;;;;;;;1.88;1.75;;;;;;;;;;5050373;28;20050;-55
2023/10/06 00:48:29;;;;;;;5.38;3.30;;;;;;;;;;5056026;28;20041;-55
2023/10/06 00:50:57;;;;;;;4.10;2.30;;;;;;;;;;5055065;28;20044;-56
2023/10/06 00:53:27;;;;;;;4.63;2.95;;;;;;;;;;5056977;28;20602;-55
2023/10/06 00:55:54;;;;;;;3.95;2.70;;;;;;;;;;5053548;28;20060;-55
2023/10/06 00:58:22;;;;;;;5.30;2.42;;;;;;;;;;5055029;28;20037;-55
2023/10/06 01:00:52;;;;;;;3.72;2.35;;;;;;;;;;5056178;28;20072;-56
2023/10/06 01:03:19;;;;;;;3.33;1.95;;;;;;;;;;5051434;28;20508;-55
2023/10/06 01:05:45;;;;;;;3.38;2.80;;;;;;;;;;5055323;28;20041;-56
2023/10/06 01:08:12;;;;;;;3.95;2.58;;;;;;;;;;5053369;28;20059;-55
2023/10/06 01:10:39;;;;;;;6.20;2.47;;;;;;;;;;5053326;28;20044;-52
2023/10/06 01:13:14;;;;;;;6.75;2.65;;;;;;;;;;5058688;28;20044;-56
2023/10/06 01:15:50;;;;;;;5.18;2.75;;;;;;;;;;5055564;28;20072;-56
2023/10/06 01:18:21;;;;;;;4.88;2.83;;;;;;;;;;5055105;28;20041;-57
2023/10/06 01:20:48;;;;;;;5.45;2.50;;;;;;;;;;5054624;28;20051;-56
2023/10/06 01:23:21;;;;;;;5.60;3.33;;;;;;;;;;5055115;28;20060;-56
2023/10/06 01:25:55;;;;;;;6.28;3.22;;;;;;;;;;5053694;28;20067;-56
2023/10/06 01:28:23;;;;;;;3.72;3.25;;;;;;;;;;5056172;28;20065;-56
2023/10/06 01:30:52;;;;;;;7.05;4.10;;;;;;;;;;5056230;28;20033;-55
2023/10/06 01:33:18;;;;;;;4.88;2.90;;;;;;;;;;5055375;28;20045;-56
2023/10/06 01:35:48;;;;;;;5.85;3.22;;;;;;;;;;5055240;28;20043;-56
2023/10/06 01:38:22;;;;;;;3.67;2.75;;;;;;;;;;5056022;28;20401;-56
2023/10/06 01:40:51;;;;;;;5.28;3.20;;;;;;;;;;5059092;28;20044;-56
2023/10/06 01:43:22;;;;;;;4.47;3.47;;;;;;;;;;5058535;28;20163;-56
2023/10/06 01:45:49;;;;;;;4.72;2.63;;;;;;;;;;5050775;28;20040;-56
2023/10/06 01:48:22;;;;;;;3.63;2.85;;;;;;;;;;5053911;28;20131;-56
2023/10/06 01:50:48;;;;;;;5.25;2.90;;;;;;;;;;5054432;28;20051;-56
2023/10/06 01:53:20;;;;;;;8.10;2.83;;;;;;;;;;5058100;28;20032;-56
2023/10/06 01:55:52;;;;;;;5.05;3.78;;;;;;;;;;5052863;28;20059;-56
2023/10/06 01:58:18;;;;;;;12.30;4.63;;;;;;;;;;5048933;28;20463;-56
2023/10/06 02:00:50;;;;;;;4.75;3.17;;;;;;;;;;5052731;28;20037;-56
2023/10/06 02:03:21;;;;;;;5.28;3.83;;;;;;;;;;5055104;28;20068;-56
2023/10/06 02:05:47;;;;;;;5.22;3.67;;;;;;;;;;5051979;28;20040;-56
2023/10/06 02:08:23;;;;;;;5.50;3.25;;;;;;;;;;5049881;28;21200;-56
2023/10/06 02:10:50;;;;;;;5.93;3.63;;;;;;;;;;5053486;28;20036;-56
2023/10/06 02:13:21;;;;;;;7.95;4.60;;;;;;;;;;5051233;28;20041;-56
2023/10/06 02:15:56;;;;;;;7.55;4.53;;;;;;;;;;5050059;28;20041;-56
2023/10/06 02:18:23;;;;;;;5.80;3.65;;;;;;;;;;5054224;28;20107;-55
2023/10/06 02:20:49;;;;;;;6.20;3.25;;;;;;;;;;5053089;28;20053;-55
2023/10/06 02:23:15;;;;;;;6.43;4.22;;;;;;;;;;5053460;28;20102;-54
2023/10/06 02:25:41;;;;;;;9.93;4.50;;;;;;;;;;5053804;28;20040;-56
2023/10/06 02:28:08;;;;;;;8.70;4.40;;;;;;;;;;5048692;28;20049;-56
2023/10/06 02:30:37;;;;;;;7.45;4.40;;;;;;;;;;5054949;28;20577;-57
2023/10/06 02:33:06;;;;;;;6.43;3.65;;;;;;;;;;5055676;28;20051;-57
2023/10/06 02:35:34;;;;;;;10.07;4.57;;;;;;;;;;5051642;28;20119;-56
2023/10/06 02:38:05;;;;;;;8.38;5.05;;;;;;;;;;5052239;28;20040;-56
2023/10/06 02:40:38;;;;;;;8.43;5.05;;;;;;;;;;5046789;28;20060;-56
2023/10/06 02:43:09;;;;;;;6.35;4.07;;;;;;;;;;5051665;28;20467;-56
2023/10/06 02:45:40;;;;;;;9.17;5.57;;;;;;;;;;5053441;28;20047;-56
2023/10/06 02:48:14;;;;;;;9.63;4.57;;;;;;;;;;5052821;28;20418;-56
2023/10/06 02:50:56;;;;;;;6.82;4.28;;;;;;;;;;5052269;28;20427;-55
2023/10/06 02:53:23;;;;;;;5.05;3.92;;;;;;;;;;5050878;28;20529;-55
2023/10/06 02:55:55;;;;;;;4.40;3.83;;;;;;;;;;5055012;28;20065;-55
2023/10/06 02:58:30;;;;;;;6.57;3.95;;;;;;;;;;5050447;28;20509;-55
2023/10/06 03:00:59;;;;;;;5.13;3.50;;;;;;;;;;5051683;28;20111;-56
2023/10/06 03:03:28;;;;;;;6.68;4.20;;;;;;;;;;5049106;28;20081;-55
2023/10/06 03:05:57;;;;;;;7.43;4.90;;;;;;;;;;5053549;28;20041;-56
2023/10/06 03:08:30;;;;;;;7.65;4.13;;;;;;;;;;5051615;28;20048;-55
2023/10/06 03:10:56;;;;;;;6.18;3.90;;;;;;;;;;5050703;28;20052;-56
2023/10/06 03:13:33;;;;;;;5.70;3.65;;;;;;;;;;5051669;28;20075;-55
2023/10/06 03:15:59;;;;;;;5.32;3.58;;;;;;;;;;5051742;28;20057;-56
2023/10/06 03:18:26;;;;;;;7.13;4.65;;;;;;;;;;5054004;28;20060;-56
2023/10/06 03:21:05;;;;;;;7.75;4.65;;;;;;;;;;5055419;28;20044;-55
2023/10/06 03:23:43;;;;;;;7.03;4.78;;;;;;;;;;5054505;28;20053;-56
2023/10/06 03:26:29;;;;;;;4.63;3.10;;;;;;;;;;5056098;28;20108;-55
2023/10/06 03:29:01;;;;;;;10.88;5.50;;;;;;;;;;5053493;28;20048;-55
2023/10/06 03:31:44;;;;;;;7.80;4.82;;;;;;;;;;5053574;28;20123;-56
2023/10/06 03:34:18;;;;;;;8.73;4.47;;;;;;;;;;5056254;28;20045;-55
2023/10/06 03:36:57;;;;;;;7.05;4.10;;;;;;;;;;5048074;28;20498;-55
2023/10/06 03:39:31;;;;;;;5.45;4.50;;;;;;;;;;5056550;28;20090;-55
2023/10/06 03:42:01;;;;;;;7.93;5.68;;;;;;;;;;5053461;28;20052;-55
2023/10/06 03:44:29;;;;;;;7.63;4.40;;;;;;;;;;5051891;28;20059;-55
2023/10/06 03:47:00;;;;;;;7.47;4.20;;;;;;;;;;5048970;28;20044;-55
2023/10/06 03:49:26;;;;;;;4.60;3.92;;;;;;;;;;5051006;28;20044;-55
2023/10/06 03:51:55;;;;;;;5.00;3.90;;;;;;;;;;5046567;28;20079;-55
2023/10/06 03:54:22;;;;;;;4.13;3.55;;;;;;;;;;5050744;28;20041;-55
2023/10/06 03:56:49;;;;;;;6.65;5.15;;;;;;;;;;5058097;28;20063;-55
2023/10/06 03:59:15;;;;;;;12.98;6.60;;;;;;;;;;5052647;28;20040;-55
2023/10/06 04:01:45;;;;;;;13.25;6.63;;;;;;;;;;5054860;28;20068;-56
2023/10/06 04:04:15;;;;;;;9.32;5.55;;;;;;;;;;5050458;28;20064;-55
2023/10/06 04:06:41;;;;;;;7.43;5.97;;;;;;;;;;5049497;28;20112;-55
2023/10/06 04:09:08;;;;;;;5.82;4.55;;;;;;;;;;5050235;28;20156;-56
2023/10/06 04:11:34;;;;;;;6.40;5.43;;;;;;;;;;5052669;28;20132;-56
2023/10/06 04:14:01;;;;;;;9.27;6.50;;;;;;;;;;5051951;28;20040;-56
2023/10/06 04:16:27;;;;;;;8.98;6.65;;;;;;;;;;5057185;28;20047;-54
2023/10/06 04:18:53;;;;;;;10.43;7.10;;;;;;;;;;5055015;28;20063;-55
2023/10/06 04:21:20;;;;;;;10.80;7.05;;;;;;;;;;5054424;28;20041;-55
2023/10/06 04:23:46;;;;;;;7.55;6.25;;;;;;;;;;5056970;28;20124;-55
2023/10/06 04:26:14;;;;;;;9.07;5.53;;;;;;;;;;5059464;28;20083;-55
2023/10/06 04:28:45;;;;;;;8.02;5.70;;;;;;;;;;5058507;28;20076;-55
2023/10/06 04:31:11;;;;;;;8.48;6.72;;;;;;;;;;5056538;28;20782;-56
2023/10/06 04:33:38;;;;;;;10.05;5.80;;;;;;;;;;5050504;28;20595;-56
2023/10/06 04:36:07;;;;;;;11.20;7.45;;;;;;;;;;5055349;28;20048;-55
2023/10/06 04:38:40;;;;;;;11.35;8.50;;;;;;;;;;5060419;28;20382;-55
2023/10/06 04:41:09;;;;;;;6.15;5.55;;;;;;;;;;5051857;28;20127;-56
2023/10/06 04:43:35;;;;;;;8.38;6.10;;;;;;;;;;5054314;28;20044;-55
2023/10/06 04:46:05;;;;;;;7.82;6.00;;;;;;;;;;5052462;28;20048;-56
2023/10/06 04:48:31;;;;;;;6.43;5.53;;;;;;;;;;5049523;28;20149;-55
2023/10/06 04:50:57;;;;;;;6.05;4.68;;;;;;;;;;5054873;28;20114;-56
2023/10/06 04:53:23;;;;;;;4.93;4.50;;;;;;;;;;5055622;28;20044;-55
2023/10/06 04:55:51;;;;;;;7.25;5.55;;;;;;;;;;5062528;28;20140;-56
2023/10/06 04:58:18;;;;;;;6.70;5.35;;;;;;;;;;5052625;28;20049;-56
2023/10/06 05:00:52;;;;;;;9.88;6.40;;;;;;;;;;5048726;28;20051;-55
2023/10/06 05:03:19;;;;;;;6.13;5.38;;;;;;;;;;5053099;28;20036;-57
2023/10/06 05:05:45;;;;;;;14.48;6.57;;;;;;;;;;5053563;28;20860;-55
2023/10/06 05:08:14;;;;;;;6.88;5.80;;;;;;;;;;5051502;28;20041;-61
2023/10/06 05:10:40;;;;;;;8.75;5.78;;;;;;;;;;5051207;28;20048;-61
2023/10/06 05:13:07;;;;;;;7.03;5.78;;;;;;;;;;5053178;28;20072;-55
2023/10/06 05:15:34;;;;;;;8.55;5.72;;;;;;;;;;5053177;28;20036;-56
2023/10/06 05:18:02;;;;;;;10.27;6.03;;;;;;;;;;5049929;28;20439;-56
2023/10/06 05:20:29;;;;;;;8.23;6.20;;;;;;;;;;5055297;28;20121;-55
2023/10/06 05:23:05;;;;;;;7.97;6.20;;;;;;;;;;5047537;28;20534;-56
2023/10/06 05:25:32;;;;;;;9.02;6.03;;;;;;;;;;5054775;28;20040;-56
2023/10/06 05:28:01;;;;;;;7.95;5.13;;;;;;;;;;5056416;28;20049;-56
2023/10/06 05:30:27;;;;;;;8.85;4.85;;;;;;;;;;5051943;28;20056;-56
2023/10/06 05:32:57;;;;;;;5.40;4.22;;;;;;;;;;5050645;28;20037;-55
2023/10/06 05:35:27;;;;;;;6.05;3.92;;;;;;;;;;5054245;28;20400;-56
2023/10/06 05:37:53;;;;;;;6.43;4.38;;;;;;;;;;5055148;28;20143;-56
2023/10/06 05:40:20;;;;;;;4.43;3.47;;;;;;;;;;5057397;28;20651;-56
2023/10/06 05:42:49;;;;;;;3.05;2.75;;;;;;;;;;5052650;28;20040;-56
2023/10/06 05:45:18;;;;;;;5.90;3.45;;;;;;;;;;5053357;28;20056;-56
2023/10/06 05:47:45;;;;;;;6.57;3.63;;;;;;;;;;5054172;28;20459;-56
2023/10/06 05:50:11;;;;;;;7.38;4.50;;;;;;;;;;5056721;28;20056;-56
2023/10/06 05:52:38;;;;;;;5.25;4.55;;;;;;;;;;5051739;28;20132;-56
2023/10/06 05:55:09;;;;;;;4.70;3.75;;;;;;;;;;5052019;28;20041;-56
2023/10/06 05:57:48;;;;;;;7.75;4.47;;;;;;;;;;5050959;28;20052;-56
2023/10/06 06:00:19;;;;;;;4.75;3.33;;;;;;;;;;5057616;28;20048;-56
2023/10/06 06:02:47;;;;;;;5.07;4.28;;;;;;;;;;5057956;28;20052;-56
2023/10/06 06:05:15;;;;;;;8.77;5.18;;;;;;;;;;5056751;28;20492;-56
2023/10/06 06:07:42;;;;;;;8.98;4.43;;;;;;;;;;5058208;28;20052;-56
2023/10/06 06:10:13;;;;;;;5.03;4.05;;;;;;;;;;5053226;28;20041;-56
2023/10/06 06:12:39;;;;;;;7.03;4.72;;;;;;;;;;5058062;28;20045;-56
2023/10/06 06:15:08;;;;;;;7.55;4.47;;;;;;;;;;5056654;28;20585;-56
2023/10/06 06:17:34;;;;;;;4.53;3.55;;;;;;;;;;5050604;28;20057;-56
2023/10/06 06:20:01;;;;;;;7.07;4.80;;;;;;;;;;5050480;28;20049;-56
2023/10/06 06:22:29;;;;;;;6.07;3.95;;;;;;;;;;5054450;28;20601;-56
2023/10/06 06:24:55;;;;;;;4.82;4.03;;;;;;;;;;5051690;28;20049;-56
2023/10/06 06:27:22;;;;;;;6.55;4.40;;;;;;;;;;5044994;28;20041;-56
2023/10/06 06:29:49;;;;;;;7.88;5.50;;;;;;;;;;5051697;28;20120;-55
2023/10/06 06:32:17;;;;;;;6.35;4.50;;;;;;;;;;5053036;28;20050;-56
2023/10/06 06:34:43;;;;;;;9.35;4.85;;;;;;;;;;5052207;28;20048;-56
2023/10/06 06:37:13;;;;;;;10.93;5.22;;;;;;;;;;5056230;28;20032;-56
2023/10/06 06:39:44;;;;;;;5.75;3.72;;;;;;;;;;5055422;28;20072;-55
2023/10/06 06:42:10;;;;;;;7.40;4.60;;;;;;;;;;5052076;28;20465;-56
2023/10/06 06:44:36;;;;;;;5.05;4.22;;;;;;;;;;5052394;28;20131;-56
2023/10/06 06:47:03;;;;;;;10.27;5.13;;;;;;;;;;5053598;28;20124;-56
2023/10/06 06:49:29;;;;;;;10.30;5.38;;;;;;;;;;5052018;28;20104;-56
2023/10/06 06:51:58;;;;;;;6.82;4.43;;;;;;;;;;5048959;28;20044;-56
2023/10/06 06:54:25;;;;;;;6.88;4.40;;;;;;;;;;5052682;28;20256;-56
2023/10/06 06:56:51;;;;;;;7.32;4.45;;;;;;;;;;5056017;28;20091;-56
2023/10/06 06:59:19;;;;;;;4.93;3.25;;;;;;;;;;5056968;28;20072;-55
2023/10/06 07:01:47;;;;;;;10.88;5.85;;;;;;;;;;5045707;28;20087;-55
2023/10/06 07:04:13;;;;;;;8.90;5.10;;;;;;;;;;5052422;28;20496;-56
2023/10/06 07:06:40;;;;;;;10.93;5.18;;;;;;;;;;5054968;28;20041;-56
2023/10/06 07:09:12;;;;;;;6.97;5.40;;;;;;;;;;5053719;28;20033;-57
2023/10/06 07:11:39;;;;;;;12.27;4.68;;;;;;;;;;5055376;28;20032;-56
2023/10/06 07:14:05;;;;;;;8.32;5.13;;;;;;;;;;5053284;28;20042;-56
2023/10/06 07:16:33;;;;;;;8.85;4.55;;;;;;;;;;5054256;28;20462;-56
2023/10/06 07:18:59;;;;;;;12.93;5.63;;;;;;;;;;5053526;28;20044;-56
2023/10/06 07:21:25;;;;;;;17.30;6.22;;;;;;;;;;5050349;28;20048;-56
2023/10/06 07:23:56;;;;;;;14.10;5.85;;;;;;;;;;5051815;28;20047;-56
2023/10/06 07:26:23;;;;;;;11.20;4.45;;;;;;;;;;5050711;28;20041;-56
2023/10/06 07:28:52;;;;;;;10.55;5.50;;;;;;;;;;5055326;28;20091;-56
2023/10/06 07:31:19;;;;;;;7.00;4.72;;;;;;;;;;5046463;28;20072;-56
2023/10/06 07:33:47;;;;;;;8.88;4.80;;;;;;;;;;5046383;28;20505;-56
2023/10/06 07:36:19;;;;;;;10.07;5.57;;;;;;;;;;5046707;28;20044;-56
2023/10/06 07:38:45;;;;;;;8.60;4.63;;;;;;;;;;5051077;28;20052;-56
2023/10/06 07:41:23;;;;;;;8.55;3.35;;;;;;;;;;5047664;28;20051;-55
2023/10/06 07:43:49;;;;;;;3.38;3.00;;;;;;;;;;5047310;28;20099;-56
2023/10/06 07:46:16;;;;;;;6.93;4.57;;;;;;;;;;5046055;28;20075;-57
2023/10/06 07:48:45;;;;;;;6.63;4.35;;;;;;;;;;5037942;28;20509;-56
2023/10/06 07:51:16;;;;;;;10.48;4.35;;;;;;;;;;5045426;28;20086;-56
2023/10/06 07:53:43;;;;;;;6.03;4.18;;;;;;;;;;5049797;28;20052;-56
2023/10/06 07:56:09;;;;;;;7.60;4.90;;;;;;;;;;5046678;28;20061;-56
2023/10/06 07:58:38;;;;;;;14.85;5.35;;;;;;;;;;5045341;28;20107;-56
2023/10/06 08:01:08;;;;;;;15.13;5.82;;;;;;;;;;5047900;28;20040;-56
2023/10/06 08:03:41;;;;;;;8.10;5.15;;;;;;;;;;5045074;28;20045;-56
2023/10/06 08:06:07;;;;;;;9.25;5.60;;;;;;;;;;5044957;28;20057;-57
2023/10/06 08:08:33;;;;;;;7.60;4.97;;;;;;;;;;5045620;28;20116;-57
2023/10/06 08:11:01;;;;;;;8.00;5.55;;;;;;;;;;5045016;28;20066;-57
2023/10/06 08:13:28;;;;;;;11.90;6.70;;;;;;;;;;5045430;28;20119;-56
2023/10/06 08:15:54;;;;;;;6.05;5.03;;;;;;;;;;5045358;28;20481;-57
2023/10/06 08:18:20;;;;;;;8.57;4.63;;;;;;;;;;5044685;28;20032;-56
2023/10/06 08:20:46;;;;;;;8.85;4.72;;;;;;;;;;5045464;28;20049;-56
2023/10/06 08:23:15;;;;;;;8.13;4.43;;;;;;;;;;5045189;28;20029;-57
2023/10/06 08:25:42;;;;;;;6.10;4.35;;;;;;;;;;5045194;28;20106;-56
2023/10/06 08:28:08;;;;;;;8.45;4.93;;;;;;;;;;5046169;28;20754;-57
2023/10/06 08:30:34;;;;;;;13.00;6.57;;;;;;;;;;5043423;28;20179;-56
2023/10/06 08:33:02;;;;;;;10.75;5.93;;;;;;;;;;5043702;28;20056;-56
2023/10/06 08:35:28;;;;;;;11.15;6.32;;;;;;;;;;5042518;28;20747;-57
2023/10/06 08:37:58;;;;;;;10.82;7.05;;;;;;;;;;5044282;28;20040;-56
2023/10/06 08:40:26;;;;;;;17.00;6.30;;;;;;;;;;5044201;28;20060;-57
2023/10/06 08:42:53;;;;;;;11.30;5.72;;;;;;;;;;5037167;28;20099;-57
2023/10/06 08:45:20;;;;;;;14.38;6.32;;;;;;;;;;5037894;28;20140;-56
2023/10/06 08:47:48;;;;;;;8.50;4.93;;;;;;;;;;5042334;28;20045;-56
2023/10/06 08:50:17;;;;;;;8.50;5.63;;;;;;;;;;5042220;28;20033;-57
2023/10/06 08:52:47;;;;;;;12.27;6.57;;;;;;;;;;5038768;28;20120;-57
2023/10/06 08:55:15;;;;;;;10.32;5.22;;;;;;;;;;5042090;28;20044;-56
2023/10/06 08:57:45;;;;;;;9.73;5.05;;;;;;;;;;5043555;28;20056;-57
2023/10/06 09:00:13;;;;;;;9.10;5.32;;;;;;;;;;5044845;28;20056;-56
2023/10/06 09:02:41;;;;;;;13.02;5.72;;;;;;;;;;5043453;28;20044;-56
2023/10/06 09:05:12;;;;;;;11.88;6.30;;;;;;;;;;5045519;28;20047;-56
2023/10/06 09:07:38;;;;;;;18.77;5.80;;;;;;;;;;5043010;28;20037;-57
2023/10/06 09:10:17;;;;;;;9.27;5.03;;;;;;;;;;5045593;28;20037;-56
2023/10/06 09:12:43;;;;;;;10.40;5.65;;;;;;;;;;5042469;28;20037;-56
2023/10/06 09:15:15;;;;;;;8.50;5.00;;;;;;;;;;5044913;28;20045;-56
2023/10/06 09:17:42;;;;;;;14.43;6.47;;;;;;;;;;5043876;28;20540;-56
2023/10/06 09:20:08;;;;;;;8.43;5.35;;;;;;;;;;5045182;28;20033;-56
2023/10/06 09:22:49;;;;;;;12.02;6.32;;;;;;;;;;5041741;28;20060;-56
2023/10/06 09:25:18;;;;;;;10.70;6.25;;;;;;;;;;5050155;28;20111;-56
2023/10/06 09:27:44;;;;;;;12.75;5.80;;;;;;;;;;5055206;28;20090;-56
2023/10/06 09:30:11;;;;;;;9.45;5.20;;;;;;;;;;5054330;28;20055;-56
2023/10/06 09:32:37;;;;;;;13.25;6.47;;;;;;;;;;5053539;28;20045;-56
2023/10/06 09:35:19;;;;;;;8.77;5.25;;;;;;;;;;5053390;28;20040;-57
2023/10/06 09:37:46;;;;;;;12.40;5.68;;;;;;;;;;5045994;28;20508;-56
2023/10/06 09:40:20;;;;;;;8.55;4.43;;;;;;;;;;5054649;28;20570;-57
2023/10/06 09:42:54;;;;;;;12.32;5.20;;;;;;;;;;5056065;28;20094;-57
2023/10/06 09:45:24;;;;;;;8.50;4.30;;;;;;;;;;5055286;28;20102;-56
2023/10/06 09:47:56;;;;;;;14.25;6.20;;;;;;;;;;5054948;28;20052;-57
2023/10/06 09:50:23;;;;;;;11.30;5.60;;;;;;;;;;5051860;28;20098;-56
2023/10/06 09:52:50;;;;;;;14.52;5.65;;;;;;;;;;5056851;28;20036;-57
2023/10/06 09:55:17;;;;;;;12.75;6.05;;;;;;;;;;5057024;28;20060;-57
2023/10/06 09:57:47;;;;;;;7.07;4.70;;;;;;;;;;5055343;28;20385;-58
2023/10/06 10:00:18;;;;;;;12.63;5.75;;;;;;;;;;5049694;28;20504;-57
2023/10/06 10:02:48;;;;;;;13.40;5.78;;;;;;;;;;5047803;28;20375;-57
2023/10/06 10:05:18;;;;;;;10.60;4.55;;;;;;;;;;5052694;28;20032;-57
2023/10/06 10:07:46;;;;;;;7.70;4.35;;;;;;;;;;5053197;28;20136;-57
2023/10/06 10:10:13;;;;;;;12.02;5.35;;;;;;;;;;5056031;28;20064;-57
2023/10/06 10:12:46;;;;;;;10.35;4.57;;;;;;;;;;5041858;28;20041;-57
2023/10/06 10:15:39;;;;;;;8.57;4.60;;;;;;;;;;5043940;28;20040;-57
2023/10/06 10:18:13;;;;;;;9.85;5.68;;;;;;;;;;5042126;28;20126;-56
2023/10/06 10:20:40;;;;;;;13.02;4.82;;;;;;;;;;5042900;28;20142;-57
2023/10/06 10:23:06;;;;;;;12.30;5.50;;;;;;;;;;5041843;28;20036;-57
2023/10/06 10:25:36;;;;;;;11.27;4.85;;;;;;;;;;5043724;28;20045;-57
2023/10/06 10:28:12;;;;;;;8.18;4.80;;;;;;;;;;5053388;28;20051;-56
2023/10/06 10:30:56;;;;;;;7.32;3.75;;;;;;;;;;5053113;28;20063;-57
2023/10/06 10:33:29;;;;;;;7.93;5.35;;;;;;;;;;5051215;28;20041;-57
2023/10/06 10:36:14;;;;;;;8.15;4.38;;;;;;;;;;5051302;28;20528;-57
2023/10/06 10:38:44;;;;;;;9.73;4.50;;;;;;;;;;5052526;28;20048;-57
2023/10/06 10:41:10;;;;;;;11.77;4.90;;;;;;;;;;5054407;28;20041;-57
2023/10/06 10:43:37;;;;;;;9.55;4.63;;;;;;;;;;5051809;28;20037;-57
2023/10/06 10:46:06;;;;;;;8.77;4.57;;;;;;;;;;5054571;28;20898;-56
2023/10/06 10:48:55;;;;;;;9.15;4.15;;;;;;;;;;5052496;28;20067;-57
2023/10/06 10:51:22;;;;;;;12.07;4.45;;;;;;;;;;5042958;28;20053;-57
2023/10/06 10:53:49;;;;;;;14.50;4.30;;;;;;;;;;5051231;28;20052;-57
2023/10/06 10:56:34;;;;;;;12.50;4.30;;;;;;;;;;5048372;28;20148;-57
2023/10/06 10:59:00;;;;;;;9.50;3.65;;;;;;;;;;5043972;28;20105;-57
2023/10/06 11:01:29;;;;;;;14.48;5.38;;;;;;;;;;5042567;28;20068;-57
2023/10/06 11:04:30;;;;;;;12.88;4.20;;;;;;;;;;5041389;28;20145;-56
2023/10/06 11:06:58;;;;;;;8.50;4.40;;;;;;;;;;5040122;28;20069;-57
2023/10/06 11:09:37;;;;;;;10.95;4.45;;;;;;;;;;5043340;28;20044;-56
2023/10/06 11:12:18;;;;;;;8.52;4.03;;;;;;;;;;5042999;28;20179;-57
2023/10/06 11:14:46;;;;;;;15.88;4.78;;;;;;;;;;5040927;28;20488;-58
2023/10/06 11:17:12;;;;;;;15.30;5.32;;;;;;;;;;5042528;28;20048;-57
2023/10/06 11:19:40;;;;;;;8.07;3.70;;;;;;;;;;5039397;28;20036;-57
2023/10/06 11:22:13;;;;;;;9.93;4.10;;;;;;;;;;5047173;28;20151;-57
2023/10/06 11:24:40;;;;;;;7.22;3.72;;;;;;;;;;5049558;28;20076;-57
2023/10/06 11:27:24;;;;;;;12.95;4.43;;;;;;;;;;5043646;28;20049;-57
2023/10/06 11:29:57;;;;;;;9.80;3.92;;;;;;;;;;5043173;28;20366;-57
2023/10/06 11:32:23;;;;;;;13.00;4.38;;;;;;;;;;5047784;28;20049;-57
2023/10/06 11:34:50;;;;;;;11.85;4.00;;;;;;;;;;5049975;28;20040;-57
2023/10/06 11:37:18;;;;;;;8.43;3.83;;;;;;;;;;5045805;28;20473;-56
2023/10/06 11:39:45;;;;;;;11.38;3.10;;;;;;;;;;5050556;28;20433;-57
2023/10/06 11:42:43;;;;;;;7.05;3.05;;;;;;;;;;5047593;28;20098;-57
2023/10/06 11:45:27;;;;;;;9.25;3.00;;;;;;;;;;5041895;28;20049;-57
2023/10/06 11:47:54;;;;;;;8.73;3.30;;;;;;;;;;5051137;28;20043;-57
2023/10/06 11:50:24;;;;;;;11.82;3.25;;;;;;;;;;5043920;28;20034;-57
2023/10/06 11:52:50;;;;;;;9.02;3.72;;;;;;;;;;5040097;28;20036;-58
2023/10/06 11:55:28;;;;;;;8.45;2.72;;;;;;;;;;5041131;28;20068;-57
2023/10/06 11:57:54;;;;;;;7.32;3.20;;;;;;;;;;5041479;28;20123;-57
2023/10/06 12:00:34;;;;;;;6.53;2.72;;;;;;;;;;5040827;28;20040;-57
2023/10/06 12:03:00;;;;;;;5.18;2.50;;;;;;;;;;5040745;28;20044;-57
2023/10/06 12:05:27;;;;;;;9.65;3.47;;;;;;;;;;5039654;28;20500;-57
2023/10/06 12:07:53;;;;;;;10.52;3.05;;;;;;;;;;5040776;28;20052;-57
2023/10/06 12:10:21;;;;;;;10.23;3.10;;;;;;;;;;5040284;28;20049;-57
2023/10/06 12:12:50;;;;;;;8.20;2.75;;;;;;;;;;5046155;28;20049;-57
2023/10/06 12:15:17;;;;;;;5.68;2.60;;;;;;;;;;5052933;28;20048;-57
2023/10/06 12:17:43;;;;;;;9.35;2.88;;;;;;;;;;5049175;28;20645;-57
2023/10/06 12:20:13;;;;;;;7.30;2.58;;;;;;;;;;5056622;28;20072;-58
2023/10/06 12:22:40;;;;;;;7.03;2.65;;;;;;;;;;5049904;28;20086;-57
2023/10/06 12:25:07;;;;;;;9.52;3.15;;;;;;;;;;5048171;28;20041;-57
2023/10/06 12:27:33;;;;;;;9.60;3.78;;;;;;;;;;5051236;28;20040;-57
2023/10/06 12:30:02;;;;;;;7.72;2.90;;;;;;;;;;5041100;28;20041;-57
2023/10/06 12:32:30;;;;;;;9.20;2.97;;;;;;;;;;5038196;28;20038;-57
2023/10/06 12:34:59;;;;;;;7.93;3.47;;;;;;;;;;5056487;28;20115;-58
2023/10/06 12:37:25;;;;;;;8.20;3.15;;;;;;;;;;5045718;28;20049;-57
2023/10/06 12:39:52;;;;;;;8.60;2.83;;;;;;;;;;5052829;28;20499;-57
2023/10/06 12:42:18;;;;;;;11.00;3.47;;;;;;;;;;5048862;28;20048;-57
2023/10/06 12:44:44;;;;;;;13.57;3.55;;;;;;;;;;5050382;28;21045;-57
2023/10/06 12:47:13;;;;;;;8.60;3.03;;;;;;;;;;5051271;28;20091;-57
2023/10/06 12:49:43;;;;;;;5.50;2.28;;;;;;;;;;5051598;28;20037;-57
2023/10/06 12:52:12;;;;;;;6.18;2.30;;;;;;;;;;5050450;28;20505;-57
2023/10/06 12:54:39;;;;;;;7.18;3.08;;;;;;;;;;5050716;28;20075;-57
2023/10/06 12:57:05;;;;;;;7.75;3.03;;;;;;;;;;5054889;28;20898;-57
2023/10/06 12:59:32;;;;;;;7.18;2.85;;;;;;;;;;5048571;28;20461;-57
2023/10/06 13:01:58;;;;;;;7.93;2.47;;;;;;;;;;5052970;28;20073;-57
2023/10/06 13:04:24;;;;;;;8.00;2.92;;;;;;;;;;5056817;28;20041;-56
2023/10/06 13:06:51;;;;;;;7.85;2.80;;;;;;;;;;5051287;28;20036;-57
2023/10/06 13:09:20;;;;;;;6.00;1.95;;;;;;;;;;5049575;28;20071;-57
2023/10/06 13:15:11;;;;;;;4.55;2.35;;;;;;;;;;5050548;28;20455;-57
2023/10/06 13:17:37;;;;;;;8.35;3.00;;;;;;;;;;5052288;28;20048;-57
2023/10/06 13:20:07;;;;;;;6.70;2.92;;;;;;;;;;5054201;28;20037;-57
2023/10/06 13:22:34;;;;;;;5.53;2.17;;;;;;;;;;5050451;28;20078;-57
2023/10/06 13:25:02;;;;;;;9.90;2.95;;;;;;;;;;5050954;28;20102;-57
2023/10/06 13:27:28;;;;;;;11.77;3.47;;;;;;;;;;5052965;28;20124;-57
2023/10/06 13:29:55;;;;;;;11.73;3.05;;;;;;;;;;5056400;28;20044;-57
2023/10/06 13:32:21;;;;;;;7.00;2.20;;;;;;;;;;5047644;28;20045;-57
2023/10/06 13:34:48;;;;;;;7.97;2.92;;;;;;;;;;5052528;28;20043;-57
2023/10/06 13:37:14;;;;;;;9.25;3.13;;;;;;;;;;5047050;28;20156;-57
2023/10/06 13:39:43;;;;;;;5.97;2.83;;;;;;;;;;5047634;28;20048;-56
2023/10/06 13:42:15;;;;;;;8.88;2.60;;;;;;;;;;5046850;28;20044;-57
2023/10/06 13:44:41;;;;;;;6.53;2.75;;;;;;;;;;5038967;28;20055;-57
2023/10/06 13:47:07;;;;;;;8.88;2.83;;;;;;;;;;5046807;28;20777;-57
2023/10/06 13:49:33;;;;;;;8.60;3.15;;;;;;;;;;5046537;28;20132;-57
2023/10/06 13:52:00;;;;;;;10.85;3.22;;;;;;;;;;5048246;28;20045;-57
2023/10/06 13:54:27;;;;;;;9.10;2.83;;;;;;;;;;5048133;28;20041;-57
2023/10/06 13:56:53;;;;;;;7.85;2.60;;;;;;;;;;5047625;28;20053;-57
2023/10/06 13:59:20;;;;;;;6.50;2.55;;;;;;;;;;5048674;28;20048;-57
2023/10/06 14:01:47;;;;;;;6.85;2.75;;;;;;;;;;5051933;28;20048;-57
2023/10/06 14:04:13;;;;;;;7.22;2.17;;;;;;;;;;5055595;28;20045;-57
2023/10/06 14:06:44;;;;;;;6.38;2.15;;;;;;;;;;5046682;28;20052;-57
2023/10/06 14:09:10;;;;;;;6.60;2.67;;;;;;;;;;5049143;28;20389;-58
2023/10/06 14:11:37;;;;;;;6.95;2.38;;;;;;;;;;5050150;28;20040;-57
2023/10/06 14:14:27;;;;;;;6.18;2.25;;;;;;;;;;5059095;28;20045;-57
2023/10/06 14:16:49;;;;;;;5.38;2.30;;;;;;;;;;5051596;28;20055;-57
2023/10/06 14:19:17;;;;;;;7.30;2.50;;;;;;;;;;5047257;28;20079;-57
2023/10/06 14:21:43;;;;;;;7.70;3.13;;;;;;;;;;5049266;28;20047;-57
2023/10/06 14:24:11;;;;;;;8.65;2.80;;;;;;;;;;5049698;28;20037;-57
2023/10/06 14:26:37;;;;;;;8.40;2.90;;;;;;;;;;5048192;28;20045;-57
2023/10/06 14:29:05;;;;;;;7.00;2.63;;;;;;;;;;5049962;28;20596;-57
2023/10/06 14:31:37;;;;;;;5.03;2.25;;;;;;;;;;5047000;28;20409;-57
2023/10/06 14:34:34;;;;;;;11.32;3.55;;;;;;;;;;5049416;28;20532;-57
2023/10/06 14:36:59;;;;;;;8.88;2.60;;;;;;;;;;5047580;28;20040;-57
2023/10/06 14:47:41;;;;;;;9.07;2.58;;;;;;;;;;5039430;28;20049;-57
2023/10/06 14:50:11;;;;;;;9.18;2.53;;;;;;;;;;5052457;28;20048;-57
2023/10/06 14:52:37;;;;;;;9.52;2.85;;;;;;;;;;5047015;28;20098;-57
2023/10/06 14:55:09;;;;;;;9.10;2.95;;;;;;;;;;5043797;28;20045;-57
2023/10/06 14:57:35;;;;;;;7.28;2.55;;;;;;;;;;5047190;28;20049;-58
2023/10/06 15:00:03;;;;;;;6.90;2.50;;;;;;;;;;5049807;28;20041;-57
2023/10/06 15:02:29;;;;;;;6.53;2.53;;;;;;;;;;5062123;28;20840;-57
2023/10/06 15:04:55;;;;;;;7.28;2.35;;;;;;;;;;5050836;28;20052;-57